Time;durP1;ratioP1;P1;durP2;ratioP2;P2;SDS_P1;SDS_P2;PMS_P1;PMS_P2;Temp;Humidity;BMP_temperature;BMP_pressure;BME280_temperature;BME280_humidity;BME280_pressure;Samples;Min_cycle;Max_cycle;Signal;HPM_P1;HPM_P2
2022/05/28 00:01:33;;;;;;;11.37;3.70;;;12.10;33.20;;;;;;5066504;28;20422;-83
2022/05/28 00:03:59;;;;;;;16.65;3.53;;;12.30;31.90;;;;;;5066520;28;20390;-83
2022/05/28 00:06:29;;;;;;;9.68;3.10;;;12.40;30.90;;;;;;5068273;28;20383;-82
2022/05/28 00:08:56;;;;;;;14.88;3.38;;;12.40;30.90;;;;;;5095458;28;20422;-82
2022/05/28 00:11:31;;;;;;;11.20;2.90;;;12.40;31.00;;;;;;5076947;28;20388;-81
2022/05/28 00:13:57;;;;;;;17.85;3.90;;;12.50;30.60;;;;;;5078840;28;20407;-80
2022/05/28 00:16:23;;;;;;;11.02;3.00;;;12.50;31.00;;;;;;5096029;28;20371;-81
2022/05/28 00:18:51;;;;;;;12.85;2.88;;;12.50;30.60;;;;;;5096970;28;20387;-80
2022/05/28 00:21:18;;;;;;;11.48;3.00;;;12.50;30.80;;;;;;5077662;28;20412;-83
2022/05/28 00:23:44;;;;;;;12.30;2.90;;;12.40;31.00;;;;;;5094810;28;20474;-83
2022/05/28 00:26:10;;;;;;;11.02;3.13;;;12.30;31.10;;;;;;5096031;28;20486;-82
2022/05/28 00:28:36;;;;;;;9.40;2.65;;;12.30;31.20;;;;;;5096576;28;20396;-80
2022/05/28 00:31:02;;;;;;;13.70;3.47;;;12.30;31.50;;;;;;5077152;28;20460;-82
2022/05/28 00:33:30;;;;;;;11.63;3.10;;;12.30;31.30;;;;;;5094353;28;20388;-79
2022/05/28 00:35:56;;;;;;;9.90;3.60;;;12.40;31.20;;;;;;5095116;28;20388;-81
2022/05/28 00:38:24;;;;;;;17.88;3.25;;;12.40;31.20;;;;;;5094779;28;20412;-81
2022/05/28 00:40:53;;;;;;;8.50;2.50;;;12.40;31.30;;;;;;5070141;28;20448;-84
2022/05/28 00:43:19;;;;;;;15.45;2.90;;;12.50;31.00;;;;;;5066310;28;20877;-81
2022/05/28 00:45:48;;;;;;;6.55;2.60;;;12.50;31.10;;;;;;5079457;28;20865;-80
2022/05/28 00:48:20;;;;;;;16.15;3.03;;;12.40;31.20;;;;;;5080500;28;20371;-81
2022/05/28 00:50:46;;;;;;;10.77;2.80;;;12.50;31.10;;;;;;5083340;28;20379;-82
2022/05/28 00:53:12;;;;;;;10.43;2.83;;;12.50;31.10;;;;;;5065824;28;20420;-82
2022/05/28 00:55:38;;;;;;;12.90;3.00;;;12.50;31.10;;;;;;5063542;28;20717;-81
2022/05/28 00:58:06;;;;;;;11.60;3.10;;;12.60;30.70;;;;;;5078847;28;20380;-81
2022/05/28 01:00:33;;;;;;;13.40;2.70;;;12.60;31.00;;;;;;5077998;28;20404;-82
2022/05/28 01:03:10;;;;;;;11.40;2.95;;;12.60;30.90;;;;;;5060894;28;20392;-79
2022/05/28 01:05:51;;;;;;;15.50;3.95;;;12.50;31.50;;;;;;5080815;28;20388;-84
2022/05/28 01:08:37;;;;;;;9.13;2.63;;;12.60;31.20;;;;;;5066638;28;20875;-81
2022/05/28 01:11:31;;;;;;;10.68;3.00;;;12.50;31.20;;;;;;5064501;28;20883;-81
2022/05/28 01:14:23;;;;;;;10.50;3.30;;;12.50;31.60;;;;;;5064140;28;20411;-80
2022/05/28 01:16:57;;;;;;;14.70;3.05;;;12.60;31.40;;;;;;5085409;28;20384;-79
2022/05/28 01:20:12;;;;;;;11.35;3.30;;;12.60;30.90;;;;;;5092115;28;20372;-81
2022/05/28 01:22:44;;;;;;;19.07;3.60;;;12.70;31.10;;;;;;5024349;28;20424;-81
2022/05/28 01:25:24;;;;;;;12.10;3.20;;;12.70;31.20;;;;;;5005216;28;20381;-81
2022/05/28 01:28:14;;;;;;;13.55;3.70;;;12.70;31.10;;;;;;5044648;28;20565;-81
2022/05/28 01:30:42;;;;;;;13.63;3.60;;;12.60;31.60;;;;;;5080409;28;20406;-82
2022/05/28 01:33:09;;;;;;;11.68;3.17;;;12.60;31.70;;;;;;5079714;28;20498;-82
2022/05/28 01:35:36;;;;;;;13.10;3.40;;;12.60;31.70;;;;;;5080480;28;20387;-85
2022/05/28 01:38:04;;;;;;;17.73;3.80;;;12.70;31.40;;;;;;5080221;28;20394;-81
2022/05/28 01:40:32;;;;;;;14.70;3.47;;;12.70;32.20;;;;;;5062961;28;20384;-79
2022/05/28 01:43:02;;;;;;;18.23;4.20;;;12.70;31.30;;;;;;5080673;28;20888;-81
2022/05/28 01:45:29;;;;;;;11.38;3.10;;;12.70;31.20;;;;;;5062358;28;20387;-82
2022/05/28 01:47:58;;;;;;;12.68;3.40;;;12.70;31.30;;;;;;5061418;28;20396;-83
2022/05/28 01:50:27;;;;;;;9.90;3.80;;;12.70;31.30;;;;;;5078817;28;20375;-82
2022/05/28 01:52:54;;;;;;;14.93;3.40;;;12.70;31.50;;;;;;5080054;28;20411;-83
2022/05/28 01:55:23;;;;;;;20.83;4.00;;;12.70;31.80;;;;;;5079795;28;20466;-83
2022/05/28 01:57:50;;;;;;;17.13;3.50;;;12.70;31.40;;;;;;5081241;28;20375;-83
2022/05/28 02:00:16;;;;;;;21.30;3.97;;;12.70;32.10;;;;;;5063863;28;20380;-82
2022/05/28 02:02:42;;;;;;;10.20;3.47;;;12.60;32.00;;;;;;5070191;28;20465;-80
2022/05/28 02:05:09;;;;;;;17.42;4.30;;;12.60;31.80;;;;;;5066352;28;20876;-82
2022/05/28 02:07:34;;;;;;;19.40;4.07;;;12.50;32.70;;;;;;5080209;28;20382;-82
2022/05/28 02:10:08;;;;;;;13.70;3.40;;;12.50;32.70;;;;;;5061727;28;20505;-82
2022/05/28 02:12:40;;;;;;;11.82;3.60;;;12.50;32.40;;;;;;5077772;28;20407;-80
2022/05/28 02:15:16;;;;;;;13.10;3.50;;;12.50;32.90;;;;;;5060253;28;20384;-81
2022/05/28 02:17:58;;;;;;;12.75;2.97;;;12.50;32.80;;;;;;5059915;28;20387;-82
2022/05/28 02:20:32;;;;;;;18.05;3.67;;;12.60;32.40;;;;;;5086350;28;20379;-79
2022/05/28 02:23:32;;;;;;;14.25;3.80;;;12.70;32.40;;;;;;5061893;28;20388;-79
2022/05/28 02:26:05;;;;;;;17.50;3.78;;;12.40;33.30;;;;;;5043765;28;20396;-83
2022/05/28 02:28:33;;;;;;;18.67;3.72;;;12.20;34.80;;;;;;5080447;28;20388;-82
2022/05/28 02:31:03;;;;;;;13.82;3.72;;;12.20;34.70;;;;;;5061780;28;20431;-83
2022/05/28 02:33:32;;;;;;;17.17;3.63;;;12.20;35.00;;;;;;5060570;28;20407;-81
2022/05/28 02:35:57;;;;;;;14.07;3.55;;;12.10;35.60;;;;;;5066347;28;20372;-83
2022/05/28 02:38:23;;;;;;;14.40;3.85;;;12.00;35.50;;;;;;5096646;28;20447;-82
2022/05/28 02:40:49;;;;;;;10.93;3.58;;;11.90;36.20;;;;;;5098993;28;20379;-82
2022/05/28 02:43:15;;;;;;;11.68;3.50;;;11.80;36.50;;;;;;5098805;28;20391;-82
2022/05/28 02:45:41;;;;;;;15.85;3.70;;;11.90;37.10;;;;;;5098344;28;20380;-82
2022/05/28 02:48:07;;;;;;;13.90;4.10;;;11.80;37.20;;;;;;5080474;28;20420;-81
2022/05/28 02:50:32;;;;;;;13.15;4.10;;;11.80;37.40;;;;;;5088671;28;20383;-82
2022/05/28 02:52:59;;;;;;;16.38;3.80;;;11.70;37.90;;;;;;5087017;28;20419;-83
2022/05/28 02:55:24;;;;;;;15.68;3.90;;;11.70;38.10;;;;;;5085144;28;20382;-83
2022/05/28 02:57:50;;;;;;;16.17;4.10;;;11.70;38.40;;;;;;5084287;28;20388;-83
2022/05/28 03:00:16;;;;;;;14.20;4.27;;;11.60;39.50;;;;;;5064228;28;20390;-83
2022/05/28 03:02:43;;;;;;;16.17;4.70;;;11.60;39.30;;;;;;5082385;28;20383;-83
2022/05/28 03:05:10;;;;;;;14.60;4.60;;;11.60;39.70;;;;;;5064091;28;20400;-83
2022/05/28 03:07:36;;;;;;;12.63;4.47;;;11.50;40.90;;;;;;5064953;28;20891;-83
2022/05/28 03:10:02;;;;;;;19.92;4.20;;;11.50;40.70;;;;;;5065839;28;20463;-83
2022/05/28 03:12:27;;;;;;;15.55;4.22;;;11.50;41.20;;;;;;5097955;28;20470;-83
2022/05/28 03:14:53;;;;;;;19.55;4.60;;;11.40;41.40;;;;;;5081483;28;20391;-82
2022/05/28 03:17:18;;;;;;;12.77;4.40;;;11.40;42.70;;;;;;5099135;28;20387;-84
2022/05/28 03:19:44;;;;;;;12.90;3.97;;;11.40;42.70;;;;;;5098911;28;20406;-82
2022/05/28 03:22:10;;;;;;;14.80;4.20;;;11.40;43.00;;;;;;5072302;28;20525;-83
2022/05/28 03:24:35;;;;;;;15.90;4.20;;;11.40;42.80;;;;;;5085474;28;20387;-83
2022/05/28 03:27:01;;;;;;;18.80;4.18;;;11.30;43.40;;;;;;5083564;28;21087;-83
2022/05/28 03:29:27;;;;;;;18.30;4.60;;;11.30;43.10;;;;;;5066023;28;20442;-83
2022/05/28 03:31:52;;;;;;;16.33;4.63;;;11.30;42.90;;;;;;5085395;28;20411;-83
2022/05/28 03:34:18;;;;;;;15.10;4.55;;;11.30;43.30;;;;;;5063687;28;20412;-79
2022/05/28 03:36:44;;;;;;;16.73;4.80;;;11.50;42.50;;;;;;5082684;28;20380;-80
2022/05/28 03:39:10;;;;;;;15.30;4.30;;;11.40;43.80;;;;;;5063353;28;20392;-83
2022/05/28 03:41:35;;;;;;;16.25;4.80;;;11.40;43.50;;;;;;5063182;28;20376;-81
2022/05/28 03:44:01;;;;;;;13.90;4.50;;;11.30;44.40;;;;;;5080061;28;20604;-83
2022/05/28 03:46:29;;;;;;;21.25;4.50;;;11.50;43.90;;;;;;5079001;28;20451;-81
2022/05/28 03:49:03;;;;;;;13.45;4.57;;;11.70;43.50;;;;;;5062659;28;20394;-83
2022/05/28 03:51:30;;;;;;;16.40;4.72;;;11.80;43.00;;;;;;5080256;28;20477;-81
2022/05/28 03:53:55;;;;;;;18.60;4.50;;;11.90;41.40;;;;;;5079678;28;20406;-81
2022/05/28 03:56:22;;;;;;;18.80;4.95;;;11.90;40.60;;;;;;5080493;28;20379;-82
2022/05/28 03:58:50;;;;;;;18.38;5.07;;;12.00;40.90;;;;;;5080372;28;20384;-83
2022/05/28 04:01:16;;;;;;;16.88;4.47;;;12.00;40.60;;;;;;5080406;28;20387;-83
2022/05/28 04:03:42;;;;;;;17.40;4.10;;;12.00;40.50;;;;;;5063137;28;20396;-83
2022/05/28 04:06:08;;;;;;;14.63;4.20;;;12.00;40.80;;;;;;5080942;28;20387;-82
2022/05/28 04:08:34;;;;;;;19.80;5.65;;;11.90;41.30;;;;;;5079849;28;20391;-82
2022/05/28 04:11:00;;;;;;;15.70;4.50;;;11.80;42.40;;;;;;5063547;28;20725;-81
2022/05/28 04:13:26;;;;;;;17.67;4.93;;;11.80;42.80;;;;;;5080584;28;20400;-82
2022/05/28 04:15:52;;;;;;;14.88;4.93;;;11.70;42.50;;;;;;5062896;28;20474;-81
2022/05/28 04:18:18;;;;;;;15.93;4.45;;;11.60;43.30;;;;;;5081725;28;20446;-82
2022/05/28 04:20:43;;;;;;;17.67;4.97;;;11.60;43.80;;;;;;5061008;28;20709;-82
2022/05/28 04:23:09;;;;;;;13.38;4.32;;;11.70;42.70;;;;;;5061722;28;20420;-83
2022/05/28 04:25:35;;;;;;;15.98;5.00;;;11.70;43.40;;;;;;5080035;28;20387;-84
2022/05/28 04:28:00;;;;;;;18.67;5.10;;;11.70;43.20;;;;;;5081783;28;20444;-83
2022/05/28 04:30:26;;;;;;;15.38;4.60;;;11.80;43.10;;;;;;5080148;28;20387;-83
2022/05/28 04:32:51;;;;;;;18.17;5.57;;;11.80;43.90;;;;;;5062341;28;20407;-82
2022/05/28 04:35:17;;;;;;;18.83;5.40;;;11.70;44.30;;;;;;5063499;28;20687;-80
2022/05/28 04:37:43;;;;;;;19.97;5.13;;;11.80;44.30;;;;;;5080599;28;20499;-82
2022/05/28 04:40:09;;;;;;;11.80;4.95;;;11.80;43.80;;;;;;5082369;28;20380;-84
2022/05/28 04:42:35;;;;;;;22.20;5.65;;;11.70;44.90;;;;;;5086701;28;20384;-82
2022/05/28 04:45:01;;;;;;;23.65;5.18;;;11.70;45.60;;;;;;5081799;28;20383;-82
2022/05/28 04:47:26;;;;;;;16.85;4.93;;;11.70;46.00;;;;;;5066163;28;20463;-81
2022/05/28 04:49:52;;;;;;;12.75;4.25;;;11.60;46.50;;;;;;5084232;28;20380;-82
2022/05/28 04:52:18;;;;;;;19.40;5.53;;;11.60;47.00;;;;;;5081184;28;20391;-83
2022/05/28 04:54:43;;;;;;;21.80;5.40;;;11.70;47.30;;;;;;5081070;28;20418;-80
2022/05/28 04:57:09;;;;;;;16.17;5.00;;;11.70;47.40;;;;;;5061436;28;20380;-80
2022/05/28 04:59:34;;;;;;;15.07;4.88;;;11.70;47.50;;;;;;5078768;28;20729;-83
2022/05/28 05:02:00;;;;;;;18.50;5.30;;;11.70;47.50;;;;;;5080424;28;20748;-83
2022/05/28 05:04:26;;;;;;;14.73;4.75;;;11.80;48.00;;;;;;5079113;28;20384;-83
2022/05/28 05:06:51;;;;;;;20.13;5.40;;;11.90;47.40;;;;;;5061880;28;20395;-84
2022/05/28 05:09:17;;;;;;;14.18;4.97;;;11.90;47.50;;;;;;5079659;28;20399;-81
2022/05/28 05:11:42;;;;;;;19.60;5.32;;;12.00;47.50;;;;;;5081056;28;20384;-78
2022/05/28 05:14:08;;;;;;;21.52;5.20;;;12.00;48.10;;;;;;5081108;28;20403;-80
2022/05/28 05:16:33;;;;;;;18.58;5.10;;;12.00;48.20;;;;;;5064434;28;20380;-82
2022/05/28 05:18:59;;;;;;;18.53;5.40;;;12.00;48.40;;;;;;5062043;28;20375;-80
2022/05/28 05:21:24;;;;;;;22.73;5.70;;;12.00;49.30;;;;;;5077988;28;20383;-84
2022/05/28 05:23:50;;;;;;;12.23;4.70;;;12.10;49.10;;;;;;5063021;28;20410;-80
2022/05/28 05:26:19;;;;;;;19.27;5.10;;;12.20;48.40;;;;;;5080195;28;20391;-81
2022/05/28 05:28:45;;;;;;;21.20;5.47;;;12.30;48.80;;;;;;5062074;28;20395;-81
2022/05/28 05:31:11;;;;;;;18.15;5.35;;;12.30;49.00;;;;;;5070184;28;20375;-80
2022/05/28 05:33:37;;;;;;;17.52;4.57;;;12.30;49.30;;;;;;5074204;28;20399;-81
2022/05/28 05:36:03;;;;;;;13.68;4.63;;;12.50;48.60;;;;;;5093765;28;20418;-78
2022/05/28 05:38:28;;;;;;;22.48;5.47;;;12.50;48.30;;;;;;5094296;28;20388;-81
2022/05/28 05:40:54;;;;;;;14.18;4.40;;;12.50;48.60;;;;;;5071216;28;20384;-80
2022/05/28 05:43:20;;;;;;;22.50;6.00;;;12.50;48.60;;;;;;5086238;28;20414;-81
2022/05/28 05:45:53;;;;;;;21.05;4.72;;;12.50;49.30;;;;;;5087546;28;20380;-80
2022/05/28 05:48:20;;;;;;;19.80;4.80;;;12.70;48.80;;;;;;5087431;28;20380;-80
2022/05/28 05:50:45;;;;;;;17.33;4.70;;;12.80;49.80;;;;;;5084003;28;20382;-83
2022/05/28 05:53:11;;;;;;;16.50;4.20;;;12.90;47.30;;;;;;5081819;28;20407;-83
2022/05/28 05:55:37;;;;;;;19.00;5.10;;;12.80;46.50;;;;;;5084818;28;20791;-81
2022/05/28 05:58:04;;;;;;;21.95;4.55;;;12.90;48.00;;;;;;5085741;28;20383;-82
2022/05/28 06:00:29;;;;;;;14.68;3.95;;;13.00;45.00;;;;;;5083735;28;20410;-82
2022/05/28 06:02:55;;;;;;;16.70;4.38;;;13.00;42.10;;;;;;5085874;28;20446;-80
2022/05/28 06:05:21;;;;;;;15.20;4.07;;;13.10;44.60;;;;;;5092866;28;20402;-80
2022/05/28 06:07:46;;;;;;;10.05;3.58;;;13.20;42.60;;;;;;5091479;28;20383;-80
2022/05/28 06:10:12;;;;;;;8.80;3.70;;;13.20;38.80;;;;;;5063702;28;20437;-80
2022/05/28 06:12:38;;;;;;;13.47;4.00;;;13.30;39.90;;;;;;5060318;28;20479;-79
2022/05/28 06:15:04;;;;;;;13.75;3.08;;;13.30;39.80;;;;;;5079051;28;20375;-82
2022/05/28 06:17:30;;;;;;;12.20;4.15;;;13.20;38.10;;;;;;5077993;28;20387;-80
2022/05/28 06:19:56;;;;;;;14.43;3.77;;;13.20;38.90;;;;;;5078792;28;20384;-82
2022/05/28 06:22:21;;;;;;;8.30;3.50;;;13.30;37.80;;;;;;5078346;28;20453;-83
2022/05/28 06:24:47;;;;;;;15.30;4.00;;;13.30;36.00;;;;;;5060840;28;20510;-81
2022/05/28 06:52:44;;;;;;;16.60;3.20;;;14.10;33.20;;;;;;5081879;28;20427;-80
2022/05/28 06:55:10;;;;;;;12.82;2.60;;;14.50;32.20;;;;;;5079935;28;20387;-80
2022/05/28 06:57:43;;;;;;;12.35;3.25;;;14.60;30.00;;;;;;5074979;28;20379;-81
2022/05/28 07:00:13;;;;;;;12.63;3.60;;;14.60;29.60;;;;;;5102977;28;20397;-81
2022/05/28 07:02:38;;;;;;;7.68;2.60;;;14.60;28.80;;;;;;5085778;28;20385;-82
2022/05/28 07:05:10;;;;;;;11.80;2.00;;;14.20;29.00;;;;;;5086982;28;20390;-82
2022/05/28 07:07:35;;;;;;;8.50;2.42;;;14.10;28.70;;;;;;5104316;28;20402;-83
2022/05/28 07:10:01;;;;;;;8.82;2.40;;;14.20;28.20;;;;;;5085894;28;20416;-81
2022/05/28 07:12:35;;;;;;;8.93;2.10;;;14.40;27.40;;;;;;5085966;28;20901;-83
2022/05/28 07:15:02;;;;;;;8.32;2.00;;;14.30;26.00;;;;;;5084527;28;20386;-82
2022/05/28 07:17:31;;;;;;;8.40;2.30;;;14.40;27.00;;;;;;5084938;28;20405;-81
2022/05/28 07:20:10;;;;;;;;;;;;;;;;;;;;;
2022/05/28 07:22:47;;;;;;;7.07;2.40;;;14.00;27.60;;;;;;5105516;28;20493;-85
2022/05/28 07:25:26;;;;;;;9.00;2.13;;;14.20;28.40;;;;;;5086937;28;20382;-81
2022/05/28 07:28:27;;;;;;;12.53;2.57;;;14.10;27.30;;;;;;5074571;28;20394;-82
2022/05/28 07:31:25;;;;;;;6.03;1.85;;;14.00;28.40;;;;;;5108154;28;20382;-79
2022/05/28 07:33:54;;;;;;;9.90;2.70;;;13.90;28.90;;;;;;5089301;28;20485;-82
2022/05/28 07:36:41;;;;;;;13.02;2.67;;;13.90;28.70;;;;;;5090325;28;20408;-81
2022/05/28 07:39:26;;;;;;;10.18;2.42;;;14.00;28.90;;;;;;5093595;28;20484;-82
2022/05/28 07:41:58;;;;;;;12.50;2.60;;;14.10;28.70;;;;;;5091022;28;20374;-78
2022/05/28 07:44:29;;;;;;;4.53;1.88;;;14.20;28.10;;;;;;5093434;28;20381;-81
2022/05/28 07:52:11;;;;;;;7.00;2.30;;;14.20;24.50;;;;;;5068076;28;20429;-80
2022/05/28 07:54:42;;;;;;;6.95;1.98;;;14.20;23.10;;;;;;5052196;28;20397;-82
2022/05/28 07:57:08;;;;;;;10.93;2.25;;;14.10;23.20;;;;;;5053181;28;20417;-81
2022/05/28 08:03:12;;;;;;;5.03;2.08;;;14.20;22.00;;;;;;5050112;28;20392;-82
2022/05/28 08:05:45;;;;;;;6.17;1.40;;;14.40;19.90;;;;;;5055207;28;20381;-79
2022/05/28 08:08:22;;;;;;;3.78;1.40;;;14.60;19.90;;;;;;5046018;28;20451;-81
2022/05/28 08:10:48;;;;;;;6.35;1.60;;;14.80;18.00;;;;;;5062907;28;20385;-79
2022/05/28 08:13:28;;;;;;;5.80;1.40;;;15.00;17.60;;;;;;5044175;28;20398;-80
2022/05/28 08:16:06;;;;;;;4.53;1.50;;;15.20;18.00;;;;;;5075987;28;20394;-80
2022/05/28 08:18:42;;;;;;;4.70;1.42;;;15.50;17.40;;;;;;5077434;28;20405;-80
2022/05/28 08:23:56;;;;;;;7.10;2.23;;;15.50;16.90;;;;;;5075658;28;20424;-79
2022/05/28 08:26:22;;;;;;;8.88;1.70;;;15.80;16.90;;;;;;5044518;28;20436;-80
2022/05/28 08:28:51;;;;;;;5.43;1.63;;;15.70;17.50;;;;;;5062183;28;20394;-82
2022/05/28 08:31:18;;;;;;;5.03;1.40;;;15.80;17.70;;;;;;5061751;28;20396;-83
2022/05/28 08:33:44;;;;;;;6.63;1.75;;;15.70;17.10;;;;;;5042014;28;20412;-83
2022/05/28 08:36:10;;;;;;;5.97;1.77;;;15.90;17.50;;;;;;5044859;28;20487;-82
2022/05/28 08:38:42;;;;;;;7.25;1.60;;;15.90;17.00;;;;;;5043768;28;20394;-83
2022/05/28 08:41:13;;;;;;;4.97;1.90;;;15.80;17.10;;;;;;5061977;28;20397;-82
2022/05/28 08:43:47;;;;;;;7.15;1.52;;;15.50;16.70;;;;;;5064076;28;20946;-81
2022/05/28 08:46:15;;;;;;;5.05;1.90;;;15.40;18.00;;;;;;5053442;28;20466;-79
2022/05/28 08:48:52;;;;;;;9.60;2.00;;;15.30;18.20;;;;;;5070047;28;20492;-80
2022/05/28 08:51:27;;;;;;;4.95;1.92;;;15.30;18.00;;;;;;5061700;28;20594;-83
2022/05/28 08:54:02;;;;;;;8.30;1.75;;;15.70;17.60;;;;;;5041338;28;20487;-82
2022/05/28 08:56:28;;;;;;;9.85;1.70;;;16.40;16.00;;;;;;5041233;28;20388;-79
2022/05/28 08:59:15;;;;;;;4.60;1.50;;;16.50;14.30;;;;;;5058719;28;20389;-79
2022/05/28 09:01:44;;;;;;;6.00;1.50;;;16.40;14.50;;;;;;5043995;28;20381;-83
2022/05/28 09:04:25;;;;;;;9.20;1.90;;;15.80;15.30;;;;;;5046654;28;20442;-81
2022/05/28 09:06:54;;;;;;;9.10;2.00;;;15.90;15.50;;;;;;5043009;28;20743;-83
2022/05/28 09:09:31;;;;;;;7.07;1.67;;;16.30;15.70;;;;;;5060805;28;20382;-84
2022/05/28 09:12:03;;;;;;;9.45;1.80;;;16.40;16.50;;;;;;5058497;28;20862;-83
2022/05/28 09:14:35;;;;;;;4.90;1.90;;;16.00;16.40;;;;;;5058335;28;20753;-80
2022/05/28 09:17:28;;;;;;;7.32;1.70;;;15.60;17.20;;;;;;5042672;28;20421;-82
2022/05/28 09:20:02;;;;;;;8.30;1.50;;;15.40;18.20;;;;;;5059652;28;20373;-83
2022/05/28 09:22:28;;;;;;;5.50;1.40;;;15.60;16.90;;;;;;5064225;28;20385;-82
2022/05/28 09:24:53;;;;;;;5.20;1.50;;;15.90;15.50;;;;;;5053324;28;20454;-81
2022/05/28 09:27:47;;;;;;;7.35;1.60;;;16.20;14.30;;;;;;5054905;28;20393;-80
2022/05/28 09:30:28;;;;;;;3.58;1.25;;;16.50;14.10;;;;;;5072601;28;20433;-82
2022/05/28 09:33:03;;;;;;;9.38;1.80;;;16.50;13.10;;;;;;5057888;28;20482;-83
2022/05/28 09:35:47;;;;;;;4.13;1.45;;;16.70;12.50;;;;;;5060400;28;20385;-83
2022/05/28 09:38:50;;;;;;;9.00;2.05;;;16.10;13.40;;;;;;5059651;28;20378;-81
2022/05/28 09:41:27;;;;;;;7.03;1.42;;;16.10;14.70;;;;;;5059531;28;20392;-82
2022/05/28 09:43:58;;;;;;;6.10;1.60;;;16.00;13.20;;;;;;5060473;28;20378;-84
2022/05/28 09:46:30;;;;;;;7.60;1.67;;;16.00;13.20;;;;;;5062752;28;20397;-83
2022/05/28 09:49:00;;;;;;;8.73;1.70;;;16.60;12.50;;;;;;5041843;28;20393;-83
2022/05/28 09:51:28;;;;;;;6.20;1.70;;;16.70;11.40;;;;;;5059621;28;20445;-79
2022/05/28 09:54:17;;;;;;;5.65;1.70;;;16.80;12.00;;;;;;5059745;28;20409;-84
2022/05/28 09:56:55;;;;;;;5.80;1.30;;;16.70;10.90;;;;;;5060476;28;20381;-81
2022/05/28 09:59:27;;;;;;;7.05;1.75;;;16.70;11.60;;;;;;5058904;28;20822;-84
2022/05/28 10:01:55;;;;;;;6.90;1.67;;;17.20;11.00;;;;;;5057830;28;20413;-84
2022/05/28 10:04:31;;;;;;;5.63;1.67;;;17.20;10.50;;;;;;5059265;28;20412;-82
2022/05/28 10:07:00;;;;;;;6.13;1.48;;;17.30;10.30;;;;;;5058635;28;20385;-82
2022/05/28 10:09:34;;;;;;;5.10;1.67;;;17.30;10.40;;;;;;5058274;28;20425;-84
2022/05/28 10:12:07;;;;;;;3.35;1.40;;;17.50;9.30;;;;;;5058952;28;20370;-82
2022/05/28 10:14:33;;;;;;;5.07;1.50;;;17.20;8.60;;;;;;5058075;28;20405;-84
2022/05/28 10:17:02;;;;;;;5.13;1.33;;;17.30;9.90;;;;;;5064018;28;20381;-81
2022/05/28 10:19:47;;;;;;;10.35;1.90;;;17.40;8.20;;;;;;5043285;28;20396;-83
2022/05/28 10:22:19;;;;;;;4.43;1.30;;;17.50;9.50;;;;;;5059880;28;20393;-83
2022/05/28 10:24:51;;;;;;;5.72;1.52;;;16.80;10.40;;;;;;5059319;28;20386;-84
2022/05/28 10:27:48;;;;;;;11.10;2.00;;;16.80;11.20;;;;;;5041350;28;20401;-82
2022/05/28 10:30:34;;;;;;;8.40;1.90;;;17.20;9.20;;;;;;5041908;28;20395;-81
2022/05/28 10:33:13;;;;;;;6.45;1.50;;;17.70;8.80;;;;;;5059715;28;20484;-82
2022/05/28 10:35:39;;;;;;;6.15;1.75;;;17.70;9.10;;;;;;5060580;28;20404;-84
2022/05/28 10:38:17;;;;;;;6.15;1.58;;;17.90;8.50;;;;;;5041295;28;20955;-84
2022/05/28 10:40:55;;;;;;;3.47;1.65;;;17.70;7.40;;;;;;5043498;28;20389;-83
2022/05/28 10:43:38;;;;;;;6.38;1.70;;;17.60;8.20;;;;;;5041563;28;20396;-83
2022/05/28 10:46:31;;;;;;;6.75;1.67;;;18.10;8.60;;;;;;5072343;28;20393;-83
2022/05/28 10:49:17;;;;;;;6.65;1.50;;;18.40;8.10;;;;;;5056453;28;20393;-84
2022/05/28 10:52:00;;;;;;;7.03;1.90;;;18.20;8.00;;;;;;5057114;28;20408;-80
2022/05/28 10:54:46;;;;;;;7.03;1.60;;;17.70;8.40;;;;;;5075295;28;20439;-82
2022/05/28 10:57:53;;;;;;;10.45;2.33;;;17.40;10.50;;;;;;5078039;28;20381;-82
2022/05/28 11:00:38;;;;;;;9.90;1.80;;;17.30;11.00;;;;;;4979565;28;20406;-82
2022/05/28 11:03:30;;;;;;;5.28;1.80;;;17.00;10.70;;;;;;4979665;28;20425;-82
2022/05/28 11:06:31;;;;;;;13.45;5.65;;;16.90;11.90;;;;;;5045556;28;20397;-81
2022/05/28 11:08:56;;;;;;;8.75;3.03;;;16.80;11.60;;;;;;5048373;28;20493;-80
2022/05/28 11:11:25;;;;;;;13.20;3.43;;;16.70;11.80;;;;;;5048171;28;20409;-83
2022/05/28 11:14:11;;;;;;;7.68;2.40;;;17.00;12.30;;;;;;5059656;28;20405;-83
2022/05/28 11:17:03;;;;;;;11.02;3.42;;;17.60;11.10;;;;;;5076104;28;20389;-81
2022/05/28 11:19:31;;;;;;;10.15;3.20;;;17.80;11.00;;;;;;5069268;28;20390;-80
2022/05/28 11:22:16;;;;;;;10.27;3.30;;;17.90;10.80;;;;;;5064366;28;20382;-82
2022/05/28 11:25:09;;;;;;;10.25;3.30;;;17.90;10.30;;;;;;5048584;28;20921;-80
2022/05/28 11:27:41;;;;;;;6.15;2.30;;;17.70;10.20;;;;;;5069184;28;20373;-83
2022/05/28 11:30:20;;;;;;;9.15;2.88;;;17.60;10.80;;;;;;5069240;28;20397;-83
2022/05/28 11:32:48;;;;;;;7.93;2.50;;;17.70;9.40;;;;;;5049269;28;20409;-84
2022/05/28 11:35:29;;;;;;;6.53;2.60;;;17.60;8.90;;;;;;5066650;28;20413;-84
2022/05/28 11:38:00;;;;;;;4.97;1.55;;;17.50;9.20;;;;;;5068252;28;20378;-81
2022/05/28 11:40:36;;;;;;;11.00;1.85;;;17.40;10.10;;;;;;5069011;28;20382;-81
2022/05/28 11:43:07;;;;;;;7.68;1.98;;;17.50;10.20;;;;;;5050901;28;20389;-81
2022/05/28 11:45:55;;;;;;;;;;;;;;;;;;;;;
2022/05/28 11:51:43;;;;;;;5.95;1.90;;;17.60;10.90;;;;;;5063258;28;20400;-84
2022/05/28 11:54:30;;;;;;;7.47;2.37;;;17.50;10.70;;;;;;5045099;28;20409;-83
2022/05/28 11:57:01;;;;;;;10.85;2.85;;;17.70;11.10;;;;;;5064450;28;20443;-82
2022/05/28 11:59:28;;;;;;;7.63;1.90;;;17.20;10.30;;;;;;5056088;28;20382;-78
2022/05/28 12:02:11;;;;;;;6.10;2.13;;;17.00;9.60;;;;;;5074321;28;20381;-84
2022/05/28 12:04:43;;;;;;;7.28;2.60;;;16.80;9.80;;;;;;5050276;28;20894;-84
2022/05/28 12:07:38;;;;;;;7.03;1.67;;;17.00;10.00;;;;;;5046384;28;20397;-84
2022/05/28 12:10:10;;;;;;;5.05;1.60;;;16.90;8.50;;;;;;5048032;28;20468;-83
2022/05/28 12:12:58;;;;;;;8.32;2.20;;;17.50;8.70;;;;;;5049265;28;20973;-85
2022/05/28 12:15:27;;;;;;;7.78;2.20;;;18.10;7.20;;;;;;5049889;28;20472;-83
2022/05/28 12:18:04;;;;;;;6.07;1.77;;;18.80;5.00;;;;;;5062436;28;20846;-84
2022/05/28 12:20:47;;;;;;;7.40;1.70;;;19.60;4.80;;;;;;5063759;28;20439;-86
2022/05/28 12:23:12;;;;;;;5.47;1.80;;;19.90;4.10;;;;;;5044973;28;20451;-85
2022/05/28 12:25:39;;;;;;;6.65;1.90;;;19.40;5.90;;;;;;5043781;28;20398;-83
2022/05/28 12:28:11;;;;;;;4.45;1.80;;;18.60;6.60;;;;;;5061754;28;20389;-85
2022/05/28 12:30:42;;;;;;;7.00;2.30;;;18.10;7.40;;;;;;5043750;28;20464;-80
2022/05/28 12:33:21;;;;;;;5.90;1.50;;;17.50;6.90;;;;;;5042720;28;20409;-83
2022/05/28 12:36:05;;;;;;;4.57;1.40;;;17.10;7.30;;;;;;5043424;28;20385;-84
2022/05/28 12:38:58;;;;;;;8.18;2.00;;;17.30;7.90;;;;;;5046060;28;20523;-81
2022/05/28 12:41:28;;;;;;;7.13;1.80;;;17.80;6.20;;;;;;5051570;28;20395;-79
2022/05/28 12:43:58;;;;;;;4.70;1.77;;;18.40;4.80;;;;;;5075062;28;20390;-81
2022/05/28 12:46:50;;;;;;;7.40;2.13;;;18.40;5.80;;;;;;5058423;28;20462;-83
2022/05/28 12:49:51;;;;;;;6.32;1.88;;;18.60;4.80;;;;;;5075419;28;20382;-82
2022/05/28 12:52:35;;;;;;;6.77;1.90;;;18.50;6.30;;;;;;5036685;28;20453;-83
2022/05/28 12:55:12;;;;;;;7.68;2.20;;;18.50;6.80;;;;;;5053968;28;20493;-83
2022/05/28 12:57:39;;;;;;;5.50;1.67;;;18.60;7.00;;;;;;5053439;28;20386;-83
2022/05/28 13:00:28;;;;;;;4.93;2.15;;;18.10;6.70;;;;;;5053761;28;20443;-83
2022/05/28 13:02:55;;;;;;;9.10;2.33;;;17.80;7.60;;;;;;5047537;28;20390;-83
2022/05/28 13:05:35;;;;;;;7.30;1.90;;;17.80;8.20;;;;;;5042711;28;20425;-81
2022/05/28 13:08:14;;;;;;;9.57;2.10;;;18.30;6.40;;;;;;5060104;28;20408;-84
2022/05/28 13:10:54;;;;;;;8.75;2.13;;;18.80;4.20;;;;;;5044625;28;20381;-84
2022/05/28 13:13:53;;;;;;;6.70;2.00;;;19.00;4.30;;;;;;5060106;28;20400;-83
2022/05/28 13:16:48;;;;;;;11.35;1.85;;;19.30;4.60;;;;;;5042866;28;20400;-83
2022/05/28 13:19:24;;;;;;;8.73;2.20;;;19.10;4.60;;;;;;5042331;28;20386;-84
2022/05/28 13:21:57;;;;;;;7.07;2.20;;;19.00;6.30;;;;;;5059374;28;20393;-83
2022/05/28 13:24:38;;;;;;;11.70;2.20;;;18.60;6.90;;;;;;5062592;28;20385;-84
2022/05/28 13:27:13;;;;;;;8.75;2.20;;;18.50;7.60;;;;;;5049577;28;20393;-84
2022/05/28 13:30:13;;;;;;;5.72;1.83;;;18.30;8.30;;;;;;5065065;28;20445;-84
2022/05/28 13:32:54;;;;;;;7.75;2.28;;;18.70;7.80;;;;;;5067891;28;20381;-82
2022/05/28 13:35:20;;;;;;;8.97;2.10;;;19.90;6.60;;;;;;5064748;28;20466;-80
2022/05/28 13:37:55;;;;;;;6.57;1.73;;;20.60;4.60;;;;;;5068050;28;20385;-81
2022/05/28 13:40:25;;;;;;;8.13;2.20;;;20.80;4.60;;;;;;5052849;28;20409;-80
2022/05/28 13:42:52;;;;;;;9.95;2.10;;;21.00;4.10;;;;;;5069217;28;20385;-81
2022/05/28 13:45:24;;;;;;;11.00;2.45;;;20.60;5.00;;;;;;5069160;28;20369;-79
2022/05/28 13:47:51;;;;;;;6.00;1.92;;;20.40;4.80;;;;;;5069997;28;20386;-78
2022/05/28 13:50:24;;;;;;;12.68;2.40;;;19.30;5.80;;;;;;5073859;28;20389;-79
2022/05/28 13:52:50;;;;;;;6.05;2.10;;;19.00;7.30;;;;;;5073066;28;20436;-82